Terminal Aerodrome Forecast
Issued by NWS

Home | Current Version | Previous Version | Graphics & Text | Print | Product List | Glossary On
Versions: 1 2 3 4 5 6 7 8 9 10 11 12 13 14 15 16 17 18
000
FTUS42 KMHX 290241 AAA
TAFPGV
TAF AMD
KPGV 290241Z 2903/2924 18005KT P6SM SCT250
     FM290700 VRB03KT P6SM SCT025
     FM291400 16005KT P6SM SCT040
      AMD LTD TO CLD VIS AND WIND=

USA.gov is the U.S. government's official web portal to all federal, state and local government web resources and services.